Coeymans, New York
Current Conditions -  °F | °C
As of 1:51 PM on Wednesday 26 Nov 2014 (Local Time) from KALB Reporting Station
Moderate Snow Moderate Snow  
Wind Chill: 25°   Ceiling: 500
Heat Index: 33°   Visibility: 0.5mi
Dew Point: 30°   Wind: 9mph
Humidity: 89%   Direction: 360°N
Pressure: 30.1"   Gusts: NA
Location:  42.47°N, 73.79°W
Report Text: KALB 261851Z 36008KT 1/2SM R01/3500V5000FT SN FG VV005 01/M01 A3010 RMK AO2 SLP194 SNINCR 1/3 P0007 T00061011
Loading
Personal Weather Stations






























Interactive Weather Map New forecast layout! Learn more

10-Day Weather Forecast

Advertisements
Track Severe Weather on mobile